createdAt,value
2019-02-20T00:00:04.238Z,7.67
2019-02-20T00:04:09.670Z,8.37
2019-02-20T00:08:15.123Z,9.43
2019-02-20T00:12:20.615Z,7.63
2019-02-20T00:16:26.062Z,8.60
2019-02-20T00:20:31.417Z,7.73
2019-02-20T00:24:37.161Z,8.10
2019-02-20T00:28:42.669Z,8.53
2019-02-20T00:32:48.368Z,8.60
2019-02-20T00:36:53.736Z,8.37
2019-02-20T00:40:59.080Z,8.53
2019-02-20T00:45:22.346Z,9.00
2019-02-20T00:49:40.483Z,7.90
2019-02-20T00:53:50.827Z,9.10
2019-02-20T00:57:56.587Z,10.00
2019-02-20T01:02:02.060Z,9.27
2019-02-20T01:06:07.442Z,9.47
2019-02-20T01:10:12.885Z,10.00
2019-02-20T01:14:18.182Z,9.33
2019-02-20T01:18:23.776Z,10.03
2019-02-20T01:22:29.187Z,10.30
2019-02-20T01:26:34.642Z,10.20
2019-02-20T01:30:40.150Z,9.73
2019-02-20T01:34:45.599Z,10.70
2019-02-20T01:38:51.015Z,9.27
2019-02-20T01:42:56.485Z,10.50
2019-02-20T01:47:01.904Z,9.63
2019-02-20T01:51:07.271Z,10.10
2019-02-20T01:55:12.978Z,11.27
2019-02-20T01:59:18.435Z,10.90
2019-02-20T02:03:23.871Z,10.50
2019-02-20T02:07:29.771Z,11.03
2019-02-20T02:11:35.102Z,9.77
2019-02-20T02:15:40.402Z,10.83
2019-02-20T02:19:45.833Z,10.90
2019-02-20T02:23:51.270Z,10.93
2019-02-20T02:27:56.710Z,11.00
2019-02-20T02:32:02.078Z,10.57
2019-02-20T02:36:07.353Z,11.30
2019-02-20T02:40:12.688Z,11.33
2019-02-20T02:44:18.427Z,10.93
2019-02-20T02:48:24.081Z,10.17
2019-02-20T02:52:29.434Z,11.23
2019-02-20T02:56:34.845Z,11.10
2019-02-20T03:00:40.631Z,10.80
2019-02-20T03:04:46.077Z,12.07
2019-02-20T03:08:51.827Z,12.00
2019-02-20T03:12:57.209Z,11.50
2019-02-20T03:17:02.651Z,11.40
2019-02-20T03:21:08.090Z,11.87
2019-02-20T03:25:13.628Z,13.07
2019-02-20T03:29:18.995Z,13.07
2019-02-20T03:33:24.342Z,12.07
2019-02-20T03:37:29.822Z,12.40
2019-02-20T03:41:35.830Z,11.87
2019-02-20T03:45:41.545Z,12.47
2019-02-20T03:49:53.666Z,10.83
2019-02-20T03:53:59.128Z,12.27
2019-02-20T03:58:05.030Z,11.90
2019-02-20T04:02:10.479Z,11.23
2019-02-20T04:06:16.110Z,11.90
2019-02-20T04:10:21.784Z,10.57
2019-02-20T04:14:27.200Z,12.20
2019-02-20T04:18:32.580Z,10.43
2019-02-20T04:22:37.925Z,11.43
2019-02-20T04:26:43.356Z,11.40
2019-02-20T04:30:49.084Z,11.10
2019-02-20T04:34:54.761Z,11.50
2019-02-20T04:39:00.633Z,11.37
2019-02-20T04:43:06.007Z,11.23
2019-02-20T04:47:11.461Z,11.77
2019-02-20T04:51:16.868Z,11.40
2019-02-20T04:55:22.302Z,11.67
2019-02-20T04:59:27.593Z,11.10
2019-02-20T05:07:43.900Z,12.87
2019-02-20T05:11:49.209Z,12.13
2019-02-20T05:15:54.658Z,11.67
2019-02-20T05:20:00.377Z,11.33
2019-02-20T05:24:05.700Z,12.07
2019-02-20T05:28:11.120Z,11.83
2019-02-20T05:32:16.540Z,11.73
2019-02-20T05:36:21.956Z,12.33
2019-02-20T05:40:27.225Z,12.10
2019-02-20T05:44:32.586Z,11.67
2019-02-20T05:48:38.336Z,11.80
2019-02-20T05:52:43.896Z,12.30
2019-02-20T05:56:49.621Z,11.57
2019-02-20T06:00:55.083Z,11.30
2019-02-20T06:05:00.354Z,12.40
2019-02-20T06:09:06.379Z,11.73
2019-02-20T06:13:12.054Z,12.17
2019-02-20T06:17:17.512Z,12.50
2019-02-20T06:21:23.120Z,12.57
2019-02-20T06:25:28.751Z,11.87
2019-02-20T06:29:34.173Z,13.33
2019-02-20T06:33:39.869Z,13.70
2019-02-20T06:37:45.238Z,12.33
2019-02-20T06:41:50.759Z,13.23
2019-02-20T06:45:56.114Z,13.37
2019-02-20T06:50:01.800Z,12.97
2019-02-20T06:54:07.197Z,13.33
2019-02-20T06:58:12.621Z,13.27
2019-02-20T07:02:17.968Z,13.00
2019-02-20T07:07:06.675Z,13.60
2019-02-20T07:12:27.732Z,12.63
2019-02-20T07:17:17.139Z,11.20
2019-02-20T07:22:03.916Z,12.17
2019-02-20T07:27:14.167Z,12.93
2019-02-20T07:31:19.967Z,14.43
2019-02-20T07:35:25.322Z,14.03
2019-02-20T07:39:30.746Z,14.37
2019-02-20T07:43:36.135Z,14.17
2019-02-20T07:47:41.473Z,13.37
2019-02-20T07:51:46.832Z,15.93
2019-02-20T07:55:52.238Z,16.13
2019-02-20T07:59:57.670Z,16.00
2019-02-20T08:04:03.153Z,17.63
2019-02-20T08:08:08.507Z,17.27
2019-02-20T08:12:13.951Z,17.30
2019-02-20T08:16:19.296Z,16.20
2019-02-20T08:20:24.727Z,15.77
2019-02-20T08:24:30.087Z,15.07
2019-02-20T08:28:35.451Z,16.50
2019-02-20T08:32:40.905Z,16.80
2019-02-20T08:36:46.304Z,15.60
2019-02-20T08:40:51.636Z,14.83
2019-02-20T08:44:56.918Z,14.77
2019-02-20T08:49:02.443Z,14.77
2019-02-20T08:53:07.873Z,15.07
2019-02-20T08:57:13.332Z,15.57
2019-02-20T09:01:18.812Z,14.60
2019-02-20T09:05:24.471Z,14.07
2019-02-20T09:09:29.824Z,13.70
2019-02-20T09:13:35.255Z,14.20
2019-02-20T09:17:40.721Z,14.47
2019-02-20T09:21:46.327Z,13.83
2019-02-20T09:25:51.591Z,14.30
2019-02-20T09:29:57.024Z,14.07
2019-02-20T09:34:02.442Z,14.20
2019-02-20T09:38:07.801Z,15.27
2019-02-20T09:42:16.622Z,15.67
2019-02-20T09:46:22.227Z,16.03
2019-02-20T09:50:27.490Z,16.27
2019-02-20T09:54:32.874Z,17.03
2019-02-20T09:58:38.298Z,17.83
2019-02-20T10:02:43.646Z,18.20
2019-02-20T10:06:48.969Z,18.40
2019-02-20T10:10:54.340Z,18.43
2019-02-20T10:14:59.758Z,18.67
2019-02-20T10:19:05.179Z,19.10
2019-02-20T10:23:10.972Z,17.73
2019-02-20T10:27:16.419Z,17.37
2019-02-20T10:31:21.759Z,17.87
2019-02-20T10:35:27.062Z,17.40
2019-02-20T10:39:32.427Z,16.40
2019-02-20T10:43:37.773Z,16.30
2019-02-20T10:47:43.221Z,15.67
2019-02-20T10:51:48.979Z,14.90
2019-02-20T10:55:54.427Z,13.60
2019-02-20T10:59:59.839Z,15.73
2019-02-20T11:04:05.276Z,14.43
2019-02-20T11:08:11.057Z,15.40
2019-02-20T11:12:17.244Z,13.20
2019-02-20T11:16:22.753Z,12.60
2019-02-20T11:20:28.093Z,10.33
2019-02-20T11:24:33.506Z,10.17
2019-02-20T11:28:38.970Z,10.93
2019-02-20T11:32:45.178Z,11.63
2019-02-20T11:36:50.603Z,11.47
2019-02-20T11:40:55.947Z,10.20
2019-02-20T11:45:01.280Z,10.93
2019-02-20T11:49:06.729Z,10.90
2019-02-20T11:53:11.990Z,10.87
2019-02-20T11:57:17.366Z,10.53
2019-02-20T12:01:22.727Z,10.63
2019-02-20T12:05:28.234Z,10.40
2019-02-20T12:09:33.580Z,9.53
2019-02-20T12:13:38.939Z,10.90
2019-02-20T12:17:44.363Z,7.83
2019-02-20T12:21:50.141Z,8.30
2019-02-20T12:25:55.579Z,8.50
2019-02-20T12:30:01.102Z,9.43
2019-02-20T12:34:06.534Z,8.03
2019-02-20T12:38:11.945Z,8.93
2019-02-20T12:42:17.423Z,7.97
2019-02-20T12:46:22.860Z,8.80
2019-02-20T12:50:28.224Z,7.83
2019-02-20T12:54:33.666Z,7.57
2019-02-20T12:58:39.100Z,7.43
2019-02-20T13:02:44.544Z,7.53
2019-02-20T13:06:59.202Z,7.77
2019-02-20T13:10:57.181Z,7.27
2019-02-20T13:15:02.607Z,8.57
2019-02-20T13:19:08.052Z,5.80
2019-02-20T13:23:13.486Z,5.57
2019-02-20T13:27:22.865Z,5.03
2019-02-20T13:31:25.827Z,6.10
2019-02-20T13:35:31.268Z,4.23
2019-02-20T13:39:37.007Z,4.83
2019-02-20T13:43:42.463Z,4.70
2019-02-20T13:47:48.157Z,4.08
2019-02-20T13:51:54.050Z,4.90
2019-02-20T13:55:59.879Z,4.55
2019-02-20T14:00:06.493Z,4.23
2019-02-20T14:04:11.828Z,4.40
2019-02-20T14:08:17.118Z,5.05
2019-02-20T14:12:22.595Z,5.70
2019-02-20T14:16:27.951Z,7.37
2019-02-20T14:20:33.308Z,7.23
2019-02-20T14:24:38.728Z,7.37
2019-02-20T14:28:44.160Z,7.13
2019-02-20T14:32:49.491Z,7.60
2019-02-20T14:36:55.728Z,7.60
2019-02-20T14:41:01.075Z,7.27
2019-02-20T14:45:07.319Z,7.10
2019-02-20T14:49:13.030Z,7.37
2019-02-20T14:53:18.709Z,7.27
2019-02-20T14:57:23.969Z,7.77
2019-02-20T15:01:30.440Z,6.53
2019-02-20T15:05:36.010Z,6.50
2019-02-20T15:09:42.281Z,6.60
2019-02-20T15:13:47.996Z,7.37
2019-02-20T15:17:53.305Z,7.60
2019-02-20T15:21:58.685Z,6.70
2019-02-20T15:26:04.137Z,6.70
2019-02-20T15:30:12.538Z,7.17
2019-02-20T15:34:18.054Z,6.70
2019-02-20T15:38:23.556Z,6.73
2019-02-20T15:42:29.263Z,6.50
2019-02-20T15:46:34.902Z,6.47
2019-02-20T15:50:41.016Z,7.00
2019-02-20T15:54:46.545Z,6.87
2019-02-20T15:58:52.158Z,7.70
2019-02-20T16:02:57.946Z,6.23
2019-02-20T16:07:03.381Z,6.70
2019-02-20T16:11:08.755Z,6.53
2019-02-20T16:15:15.600Z,6.40
2019-02-20T16:19:20.972Z,7.03
2019-02-20T16:23:26.347Z,6.57
2019-02-20T16:27:31.860Z,7.27
2019-02-20T16:31:37.272Z,7.13
2019-02-20T16:35:42.837Z,7.47
2019-02-20T16:39:48.257Z,7.63
2019-02-20T16:43:54.069Z,8.37
2019-02-20T16:47:59.576Z,8.27
2019-02-20T16:52:05.162Z,8.23
2019-02-20T16:56:10.678Z,8.07
2019-02-20T17:00:17.406Z,8.17
2019-02-20T17:04:23.093Z,8.17
2019-02-20T17:08:28.881Z,9.33
2019-02-20T17:12:34.589Z,9.17
2019-02-20T17:16:40.506Z,9.23
2019-02-20T17:20:45.967Z,9.67
2019-02-20T17:24:51.312Z,8.47
2019-02-20T17:28:56.688Z,8.67
2019-02-20T17:33:02.114Z,11.40
2019-02-20T17:37:07.574Z,10.97
2019-02-20T17:41:12.999Z,10.40
2019-02-20T17:45:18.520Z,10.57
2019-02-20T17:49:24.802Z,9.43
2019-02-20T17:53:30.145Z,10.20
2019-02-20T17:57:36.018Z,9.57
2019-02-20T18:01:41.572Z,9.43
2019-02-20T18:05:47.372Z,8.90
2019-02-20T18:09:53.051Z,9.50
2019-02-20T18:13:58.747Z,9.97
2019-02-20T18:18:04.178Z,10.47
2019-02-20T18:22:09.753Z,10.07
2019-02-20T18:26:15.185Z,10.83
2019-02-20T18:30:20.614Z,9.83
2019-02-20T18:34:25.994Z,10.13
2019-02-20T18:38:31.364Z,9.87
2019-02-20T18:42:36.726Z,11.07
2019-02-20T18:46:42.076Z,10.07
2019-02-20T18:50:47.503Z,10.27
2019-02-20T18:54:52.969Z,10.33
2019-02-20T18:58:58.908Z,10.97
2019-02-20T19:03:04.341Z,10.87
2019-02-20T19:07:16.149Z,11.50
2019-02-20T19:12:12.787Z,11.13
2019-02-20T19:17:46.151Z,11.73
2019-02-20T19:22:54.113Z,12.20
2019-02-20T19:27:50.009Z,12.43
2019-02-20T19:33:07.455Z,12.80
2019-02-20T19:38:25.348Z,12.13
2019-02-20T19:43:42.749Z,11.80
2019-02-20T19:48:45.999Z,12.20
2019-02-20T19:53:56.921Z,13.10
2019-02-20T19:59:08.909Z,13.87
2019-02-20T20:03:51.648Z,12.47
2019-02-20T20:09:02.249Z,13.57
2019-02-20T20:14:02.460Z,14.07
2019-02-20T20:19:05.039Z,13.20
2019-02-20T20:23:57.583Z,14.70
2019-02-20T20:28:39.785Z,13.70
2019-02-20T20:33:30.868Z,13.83
2019-02-20T20:38:44.033Z,15.17
2019-02-20T20:43:41.296Z,14.03
2019-02-20T20:48:12.185Z,16.33
2019-02-20T20:53:12.188Z,14.80
2019-02-20T20:58:17.738Z,15.20
2019-02-20T21:02:35.200Z,15.57
2019-02-20T21:07:26.115Z,15.50
2019-02-20T21:11:48.354Z,16.63
2019-02-20T21:16:08.929Z,16.80
2019-02-20T21:21:15.956Z,16.47
2019-02-20T21:26:17.263Z,17.40
2019-02-20T21:31:28.922Z,15.97
2019-02-20T21:36:20.244Z,15.17
2019-02-20T21:40:57.024Z,17.30
2019-02-20T21:45:58.450Z,16.70
2019-02-20T21:50:46.368Z,17.20
2019-02-20T21:55:23.864Z,17.60
2019-02-20T22:00:11.104Z,17.97
2019-02-20T22:04:42.880Z,17.33
2019-02-20T22:09:57.876Z,18.23
2019-02-20T22:14:54.907Z,18.67
2019-02-20T22:19:48.662Z,19.47
2019-02-20T22:24:44.627Z,18.67
2019-02-20T22:30:14.478Z,18.23
2019-02-20T22:35:00.477Z,17.57
2019-02-20T22:40:00.782Z,18.83
2019-02-20T22:45:03.401Z,18.70
2019-02-20T22:49:43.550Z,18.00
2019-02-20T22:54:35.694Z,19.27
2019-02-20T22:59:46.968Z,17.87
2019-02-20T23:04:34.903Z,18.13
2019-02-20T23:09:32.632Z,18.73
2019-02-20T23:14:28.014Z,19.47
2019-02-20T23:18:33.366Z,20.67
2019-02-20T23:22:38.667Z,21.37
2019-02-20T23:26:43.929Z,21.33
2019-02-20T23:30:49.371Z,20.23
2019-02-20T23:34:54.781Z,20.03
2019-02-20T23:39:00.584Z,19.77
2019-02-20T23:43:06.025Z,21.63
2019-02-20T23:47:11.450Z,21.50
2019-02-20T23:51:16.834Z,21.83
2019-02-20T23:55:22.520Z,21.27
2019-02-20T23:59:27.788Z,20.33
